NFFN/NAN METAR and TAF weather

Enter ICAO airport designator
Station Type Date Time Source
NFFN METAR 2022/12/10 02:00 UTC NOAA

NFFN 100200Z 14003KT 9999 -TSRA FEW018CB SCT026TCU BKN046 26/25 Q1010 TEMPO 3000 TSRA


Station Type Date Time Source
NFFN Decoded METAR 2022/12/10 02:00 UTC NOAA

Nandi, Fiji (NFFN) 17-45S 177-27E 18M
Dec 09, 2022 - 09:00 PM EST / 2022.12.10 0200 UTC
Wind: from the SE (140 degrees) at 3 MPH (3 KT):0
Visibility: greater than 7 mile(s):0
Sky conditions: mostly cloudy
Weather: light rain with thunder; Cumulonimbus clouds, towering cumulus clouds observed
Temperature: 78 F (26 C)
Dew Point: 77 F (25 C)
Relative Humidity: 94%
Pressure (altimeter): 29.83 in. Hg (1010 hPa)
ob: NFFN 100200Z 14003KT 9999 -TSRA FEW018CB SCT026TCU BKN046 26/25 Q1010 TEMPO 3000 TSRA
cycle: 2

Station Type Date Time Source
NFFN TAF 2022/12/09 23:58 UTC NOAA

TAF
AMD NFFN 092257Z 0923/1018 32010KT 9999 SCT025 PROB40
TEMPO 0923/1008 3000 TSRA BKN012 FEW016CB PROB40
TEMPO 1012/1018 5000 TSRA BKN012 FEW016CB

Example: see airport list